sensor_id;sensor_type;location;lat;lon;timestamp;P1;durP1;ratioP1;P2;durP2;ratioP2
55931;SDS011;41837;55.700;37.984;2022-10-17T00:01:40;8.63;;;5.85;;
55931;SDS011;41837;55.700;37.984;2022-10-17T00:04:06;12.00;;;6.03;;
55931;SDS011;41837;55.700;37.984;2022-10-17T00:06:32;12.70;;;6.10;;
55931;SDS011;41837;55.700;37.984;2022-10-17T00:08:58;13.18;;;5.65;;
55931;SDS011;41837;55.700;37.984;2022-10-17T00:11:25;14.20;;;6.20;;
55931;SDS011;41837;55.700;37.984;2022-10-17T00:13:53;13.18;;;6.43;;
55931;SDS011;41837;55.700;37.984;2022-10-17T00:16:29;16.40;;;5.78;;
55931;SDS011;41837;55.700;37.984;2022-10-17T00:18:55;15.00;;;6.07;;
55931;SDS011;41837;55.700;37.984;2022-10-17T00:21:22;11.77;;;6.07;;
55931;SDS011;41837;55.700;37.984;2022-10-17T00:23:49;12.82;;;5.93;;
55931;SDS011;41837;55.700;37.984;2022-10-17T00:26:15;11.43;;;6.80;;
55931;SDS011;41837;55.700;37.984;2022-10-17T00:28:44;11.55;;;6.38;;
55931;SDS011;41837;55.700;37.984;2022-10-17T00:31:10;14.40;;;6.22;;
55931;SDS011;41837;55.700;37.984;2022-10-17T00:33:37;14.65;;;6.43;;
55931;SDS011;41837;55.700;37.984;2022-10-17T00:38:29;13.88;;;6.50;;
55931;SDS011;41837;55.700;37.984;2022-10-17T00:40:54;11.20;;;5.68;;
55931;SDS011;41837;55.700;37.984;2022-10-17T00:43:20;13.95;;;6.47;;
55931;SDS011;41837;55.700;37.984;2022-10-17T00:45:46;14.02;;;6.93;;
55931;SDS011;41837;55.700;37.984;2022-10-17T00:48:12;12.73;;;6.15;;
55931;SDS011;41837;55.700;37.984;2022-10-17T00:50:39;13.68;;;6.20;;
55931;SDS011;41837;55.700;37.984;2022-10-17T00:53:06;10.65;;;5.68;;
55931;SDS011;41837;55.700;37.984;2022-10-17T00:55:33;17.67;;;6.18;;
55931;SDS011;41837;55.700;37.984;2022-10-17T00:58:01;12.05;;;5.88;;
55931;SDS011;41837;55.700;37.984;2022-10-17T01:00:27;11.23;;;5.95;;
55931;SDS011;41837;55.700;37.984;2022-10-17T01:02:53;13.18;;;5.55;;
55931;SDS011;41837;55.700;37.984;2022-10-17T01:05:20;11.63;;;5.60;;
55931;SDS011;41837;55.700;37.984;2022-10-17T01:07:47;12.07;;;5.72;;
55931;SDS011;41837;55.700;37.984;2022-10-17T01:10:15;11.75;;;5.97;;
55931;SDS011;41837;55.700;37.984;2022-10-17T01:15:28;13.30;;;5.93;;
55931;SDS011;41837;55.700;37.984;2022-10-17T01:20:43;23.70;;;6.43;;
55931;SDS011;41837;55.700;37.984;2022-10-17T01:28:55;13.20;;;5.93;;
55931;SDS011;41837;55.700;37.984;2022-10-17T01:31:31;10.30;;;5.63;;
55931;SDS011;41837;55.700;37.984;2022-10-17T01:42:20;11.77;;;6.00;;
55931;SDS011;41837;55.700;37.984;2022-10-17T01:47:19;11.15;;;5.70;;
55931;SDS011;41837;55.700;37.984;2022-10-17T01:49:47;10.85;;;5.85;;
55931;SDS011;41837;55.700;37.984;2022-10-17T01:52:15;12.10;;;5.95;;
55931;SDS011;41837;55.700;37.984;2022-10-17T01:54:57;11.85;;;5.75;;
55931;SDS011;41837;55.700;37.984;2022-10-17T01:57:32;14.35;;;5.88;;
55931;SDS011;41837;55.700;37.984;2022-10-17T01:59:59;11.55;;;6.00;;
55931;SDS011;41837;55.700;37.984;2022-10-17T02:02:29;10.52;;;5.55;;
55931;SDS011;41837;55.700;37.984;2022-10-17T02:04:56;9.90;;;5.90;;
55931;SDS011;41837;55.700;37.984;2022-10-17T02:07:22;14.60;;;6.78;;
55931;SDS011;41837;55.700;37.984;2022-10-17T02:09:49;9.43;;;4.88;;
55931;SDS011;41837;55.700;37.984;2022-10-17T02:12:16;10.48;;;5.43;;
55931;SDS011;41837;55.700;37.984;2022-10-17T02:17:47;10.35;;;5.10;;
55931;SDS011;41837;55.700;37.984;2022-10-17T02:20:24;12.13;;;5.90;;
55931;SDS011;41837;55.700;37.984;2022-10-17T02:23:10;10.07;;;5.40;;
55931;SDS011;41837;55.700;37.984;2022-10-17T02:25:39;9.50;;;5.32;;
55931;SDS011;41837;55.700;37.984;2022-10-17T02:28:13;10.32;;;5.30;;
55931;SDS011;41837;55.700;37.984;2022-10-17T02:30:47;11.00;;;5.30;;
55931;SDS011;41837;55.700;37.984;2022-10-17T02:33:20;9.13;;;5.28;;
55931;SDS011;41837;55.700;37.984;2022-10-17T02:35:49;9.32;;;5.22;;
55931;SDS011;41837;55.700;37.984;2022-10-17T02:38:17;8.07;;;4.85;;
55931;SDS011;41837;55.700;37.984;2022-10-17T02:40:44;11.15;;;4.95;;
55931;SDS011;41837;55.700;37.984;2022-10-17T02:43:11;10.68;;;5.35;;
55931;SDS011;41837;55.700;37.984;2022-10-17T02:45:40;10.02;;;5.53;;
55931;SDS011;41837;55.700;37.984;2022-10-17T02:48:14;9.65;;;5.20;;
55931;SDS011;41837;55.700;37.984;2022-10-17T02:53:10;11.18;;;4.93;;
55931;SDS011;41837;55.700;37.984;2022-10-17T02:55:40;10.05;;;5.28;;
55931;SDS011;41837;55.700;37.984;2022-10-17T02:58:10;9.63;;;5.70;;
55931;SDS011;41837;55.700;37.984;2022-10-17T03:00:38;11.73;;;5.35;;
55931;SDS011;41837;55.700;37.984;2022-10-17T03:03:17;11.93;;;5.50;;
55931;SDS011;41837;55.700;37.984;2022-10-17T03:05:44;7.75;;;5.57;;
55931;SDS011;41837;55.700;37.984;2022-10-17T03:08:10;19.52;;;5.70;;
55931;SDS011;41837;55.700;37.984;2022-10-17T03:10:36;8.18;;;5.03;;
55931;SDS011;41837;55.700;37.984;2022-10-17T03:13:02;13.20;;;5.43;;
55931;SDS011;41837;55.700;37.984;2022-10-17T03:15:29;12.95;;;5.60;;
55931;SDS011;41837;55.700;37.984;2022-10-17T03:17:55;8.18;;;5.32;;
55931;SDS011;41837;55.700;37.984;2022-10-17T03:20:24;10.40;;;5.50;;
55931;SDS011;41837;55.700;37.984;2022-10-17T03:22:50;11.20;;;5.40;;
55931;SDS011;41837;55.700;37.984;2022-10-17T03:25:17;9.88;;;5.32;;
55931;SDS011;41837;55.700;37.984;2022-10-17T03:27:46;10.45;;;5.90;;
55931;SDS011;41837;55.700;37.984;2022-10-17T03:30:13;13.70;;;5.70;;
55931;SDS011;41837;55.700;37.984;2022-10-17T03:32:39;13.77;;;5.63;;
55931;SDS011;41837;55.700;37.984;2022-10-17T03:35:05;15.38;;;5.60;;
55931;SDS011;41837;55.700;37.984;2022-10-17T03:37:31;9.40;;;5.00;;
55931;SDS011;41837;55.700;37.984;2022-10-17T03:39:58;12.48;;;6.10;;
55931;SDS011;41837;55.700;37.984;2022-10-17T03:42:24;10.38;;;5.68;;
55931;SDS011;41837;55.700;37.984;2022-10-17T03:44:50;11.55;;;5.68;;
55931;SDS011;41837;55.700;37.984;2022-10-17T03:47:16;11.60;;;5.80;;
55931;SDS011;41837;55.700;37.984;2022-10-17T03:49:43;9.27;;;5.53;;
55931;SDS011;41837;55.700;37.984;2022-10-17T03:52:10;15.45;;;6.00;;
55931;SDS011;41837;55.700;37.984;2022-10-17T03:54:37;16.42;;;5.40;;
55931;SDS011;41837;55.700;37.984;2022-10-17T03:57:03;12.27;;;6.15;;
55931;SDS011;41837;55.700;37.984;2022-10-17T03:59:30;10.32;;;5.45;;
55931;SDS011;41837;55.700;37.984;2022-10-17T04:02:06;15.93;;;5.47;;
55931;SDS011;41837;55.700;37.984;2022-10-17T04:04:34;8.32;;;5.55;;
55931;SDS011;41837;55.700;37.984;2022-10-17T04:07:00;12.18;;;5.70;;
55931;SDS011;41837;55.700;37.984;2022-10-17T04:09:26;13.05;;;5.68;;
55931;SDS011;41837;55.700;37.984;2022-10-17T04:12:06;7.78;;;5.03;;
55931;SDS011;41837;55.700;37.984;2022-10-17T04:14:35;9.38;;;4.97;;
55931;SDS011;41837;55.700;37.984;2022-10-17T04:17:01;11.35;;;5.55;;
55931;SDS011;41837;55.700;37.984;2022-10-17T04:19:28;11.70;;;6.00;;
55931;SDS011;41837;55.700;37.984;2022-10-17T04:21:54;9.13;;;5.22;;
55931;SDS011;41837;55.700;37.984;2022-10-17T04:24:20;17.70;;;6.57;;
55931;SDS011;41837;55.700;37.984;2022-10-17T04:27:02;10.93;;;5.55;;
55931;SDS011;41837;55.700;37.984;2022-10-17T04:29:31;9.23;;;5.75;;
55931;SDS011;41837;55.700;37.984;2022-10-17T04:32:04;11.00;;;5.75;;
55931;SDS011;41837;55.700;37.984;2022-10-17T04:37:08;13.07;;;5.55;;
55931;SDS011;41837;55.700;37.984;2022-10-17T04:39:35;19.08;;;5.72;;
55931;SDS011;41837;55.700;37.984;2022-10-17T04:42:01;13.65;;;5.93;;
55931;SDS011;41837;55.700;37.984;2022-10-17T04:44:27;14.70;;;5.78;;
55931;SDS011;41837;55.700;37.984;2022-10-17T04:46:56;10.13;;;5.07;;
55931;SDS011;41837;55.700;37.984;2022-10-17T04:49:22;14.68;;;6.00;;
55931;SDS011;41837;55.700;37.984;2022-10-17T04:51:52;10.60;;;6.07;;
55931;SDS011;41837;55.700;37.984;2022-10-17T04:54:21;12.63;;;5.93;;
55931;SDS011;41837;55.700;37.984;2022-10-17T04:56:55;12.85;;;5.88;;
55931;SDS011;41837;55.700;37.984;2022-10-17T04:59:21;12.90;;;6.00;;
55931;SDS011;41837;55.700;37.984;2022-10-17T05:01:52;13.73;;;6.00;;
55931;SDS011;41837;55.700;37.984;2022-10-17T05:04:20;11.68;;;5.78;;
55931;SDS011;41837;55.700;37.984;2022-10-17T05:06:46;13.60;;;6.05;;
55931;SDS011;41837;55.700;37.984;2022-10-17T05:09:30;12.85;;;5.68;;
55931;SDS011;41837;55.700;37.984;2022-10-17T05:11:57;20.67;;;6.47;;
55931;SDS011;41837;55.700;37.984;2022-10-17T05:14:24;9.90;;;5.72;;
55931;SDS011;41837;55.700;37.984;2022-10-17T05:16:50;11.77;;;6.00;;
55931;SDS011;41837;55.700;37.984;2022-10-17T05:19:16;19.08;;;8.25;;
55931;SDS011;41837;55.700;37.984;2022-10-17T05:21:46;11.63;;;5.85;;
55931;SDS011;41837;55.700;37.984;2022-10-17T05:24:12;12.98;;;6.20;;
55931;SDS011;41837;55.700;37.984;2022-10-17T05:26:39;15.55;;;6.55;;
55931;SDS011;41837;55.700;37.984;2022-10-17T05:29:05;14.60;;;5.97;;
55931;SDS011;41837;55.700;37.984;2022-10-17T05:31:35;11.18;;;5.63;;
55931;SDS011;41837;55.700;37.984;2022-10-17T05:34:03;16.75;;;5.75;;
55931;SDS011;41837;55.700;37.984;2022-10-17T05:36:31;10.55;;;5.78;;
55931;SDS011;41837;55.700;37.984;2022-10-17T05:38:59;14.35;;;5.75;;
55931;SDS011;41837;55.700;37.984;2022-10-17T05:41:26;14.93;;;6.10;;
55931;SDS011;41837;55.700;37.984;2022-10-17T05:43:52;15.18;;;5.25;;
55931;SDS011;41837;55.700;37.984;2022-10-17T05:46:27;23.58;;;5.80;;
55931;SDS011;41837;55.700;37.984;2022-10-17T05:48:53;15.07;;;5.68;;
55931;SDS011;41837;55.700;37.984;2022-10-17T05:51:20;11.30;;;5.55;;
55931;SDS011;41837;55.700;37.984;2022-10-17T05:53:46;10.07;;;5.43;;
55931;SDS011;41837;55.700;37.984;2022-10-17T05:56:19;15.68;;;6.05;;
55931;SDS011;41837;55.700;37.984;2022-10-17T05:58:46;14.13;;;6.25;;
55931;SDS011;41837;55.700;37.984;2022-10-17T06:01:26;15.70;;;5.25;;
55931;SDS011;41837;55.700;37.984;2022-10-17T06:03:52;14.48;;;6.03;;
55931;SDS011;41837;55.700;37.984;2022-10-17T06:06:18;11.40;;;4.97;;
55931;SDS011;41837;55.700;37.984;2022-10-17T06:08:45;13.23;;;5.78;;
55931;SDS011;41837;55.700;37.984;2022-10-17T06:11:15;13.02;;;5.05;;
55931;SDS011;41837;55.700;37.984;2022-10-17T06:13:42;8.68;;;5.63;;
55931;SDS011;41837;55.700;37.984;2022-10-17T06:16:17;14.60;;;5.88;;
55931;SDS011;41837;55.700;37.984;2022-10-17T06:18:44;15.57;;;6.20;;
55931;SDS011;41837;55.700;37.984;2022-10-17T06:21:10;16.13;;;6.93;;
55931;SDS011;41837;55.700;37.984;2022-10-17T06:23:42;13.35;;;6.35;;
55931;SDS011;41837;55.700;37.984;2022-10-17T06:26:29;11.68;;;5.72;;
55931;SDS011;41837;55.700;37.984;2022-10-17T06:28:55;17.13;;;5.82;;
55931;SDS011;41837;55.700;37.984;2022-10-17T06:31:21;11.93;;;6.35;;
55931;SDS011;41837;55.700;37.984;2022-10-17T06:33:48;11.55;;;5.63;;
55931;SDS011;41837;55.700;37.984;2022-10-17T06:36:14;10.75;;;6.13;;
55931;SDS011;41837;55.700;37.984;2022-10-17T06:38:41;16.40;;;5.90;;
55931;SDS011;41837;55.700;37.984;2022-10-17T06:41:14;12.18;;;5.80;;
55931;SDS011;41837;55.700;37.984;2022-10-17T06:43:42;15.32;;;5.78;;
55931;SDS011;41837;55.700;37.984;2022-10-17T06:46:28;14.52;;;5.53;;
55931;SDS011;41837;55.700;37.984;2022-10-17T06:48:58;13.80;;;5.65;;
55931;SDS011;41837;55.700;37.984;2022-10-17T06:51:55;16.10;;;5.75;;
55931;SDS011;41837;55.700;37.984;2022-10-17T06:54:30;9.40;;;5.32;;
55931;SDS011;41837;55.700;37.984;2022-10-17T06:57:19;15.95;;;6.38;;
55931;SDS011;41837;55.700;37.984;2022-10-17T07:00:00;14.68;;;5.65;;
55931;SDS011;41837;55.700;37.984;2022-10-17T07:02:37;15.98;;;5.38;;
55931;SDS011;41837;55.700;37.984;2022-10-17T07:05:03;9.90;;;5.22;;
55931;SDS011;41837;55.700;37.984;2022-10-17T07:07:31;14.88;;;4.63;;
55931;SDS011;41837;55.700;37.984;2022-10-17T07:09:57;18.10;;;6.05;;
55931;SDS011;41837;55.700;37.984;2022-10-17T07:12:23;12.10;;;4.88;;
55931;SDS011;41837;55.700;37.984;2022-10-17T07:14:50;10.35;;;5.45;;
55931;SDS011;41837;55.700;37.984;2022-10-17T07:17:16;12.35;;;5.50;;
55931;SDS011;41837;55.700;37.984;2022-10-17T07:19:44;12.48;;;5.20;;
55931;SDS011;41837;55.700;37.984;2022-10-17T07:22:10;11.25;;;5.30;;
55931;SDS011;41837;55.700;37.984;2022-10-17T07:24:39;15.13;;;5.38;;
55931;SDS011;41837;55.700;37.984;2022-10-17T07:27:17;11.13;;;4.63;;
55931;SDS011;41837;55.700;37.984;2022-10-17T07:29:43;16.17;;;5.35;;
55931;SDS011;41837;55.700;37.984;2022-10-17T07:32:16;19.17;;;5.85;;
55931;SDS011;41837;55.700;37.984;2022-10-17T07:34:42;12.13;;;4.78;;
55931;SDS011;41837;55.700;37.984;2022-10-17T07:37:09;14.02;;;5.30;;
55931;SDS011;41837;55.700;37.984;2022-10-17T07:39:40;13.60;;;5.50;;
55931;SDS011;41837;55.700;37.984;2022-10-17T07:42:06;13.55;;;5.97;;
55931;SDS011;41837;55.700;37.984;2022-10-17T07:44:33;16.85;;;5.32;;
55931;SDS011;41837;55.700;37.984;2022-10-17T07:47:00;16.65;;;6.20;;
55931;SDS011;41837;55.700;37.984;2022-10-17T07:49:27;14.05;;;6.20;;
55931;SDS011;41837;55.700;37.984;2022-10-17T07:51:53;12.07;;;6.53;;
55931;SDS011;41837;55.700;37.984;2022-10-17T07:54:20;15.23;;;6.43;;
55931;SDS011;41837;55.700;37.984;2022-10-17T07:56:46;14.07;;;6.00;;
55931;SDS011;41837;55.700;37.984;2022-10-17T07:59:16;17.58;;;6.05;;
55931;SDS011;41837;55.700;37.984;2022-10-17T08:01:42;9.95;;;5.38;;
55931;SDS011;41837;55.700;37.984;2022-10-17T08:04:08;31.05;;;12.35;;
55931;SDS011;41837;55.700;37.984;2022-10-17T08:06:33;17.73;;;5.82;;
55931;SDS011;41837;55.700;37.984;2022-10-17T08:08:59;13.20;;;6.20;;
55931;SDS011;41837;55.700;37.984;2022-10-17T08:11:26;11.55;;;5.70;;
55931;SDS011;41837;55.700;37.984;2022-10-17T08:13:52;12.50;;;6.15;;
55931;SDS011;41837;55.700;37.984;2022-10-17T08:16:18;24.80;;;7.10;;
55931;SDS011;41837;55.700;37.984;2022-10-17T08:18:44;14.65;;;6.43;;
55931;SDS011;41837;55.700;37.984;2022-10-17T08:21:10;18.85;;;7.15;;
55931;SDS011;41837;55.700;37.984;2022-10-17T08:23:38;13.65;;;6.63;;
55931;SDS011;41837;55.700;37.984;2022-10-17T08:26:05;16.92;;;7.47;;
55931;SDS011;41837;55.700;37.984;2022-10-17T08:28:36;16.75;;;7.85;;
55931;SDS011;41837;55.700;37.984;2022-10-17T08:31:02;18.90;;;7.55;;
55931;SDS011;41837;55.700;37.984;2022-10-17T08:33:28;20.40;;;7.55;;
55931;SDS011;41837;55.700;37.984;2022-10-17T08:35:56;12.23;;;7.07;;
55931;SDS011;41837;55.700;37.984;2022-10-17T08:38:23;15.73;;;7.30;;
55931;SDS011;41837;55.700;37.984;2022-10-17T08:40:49;14.75;;;7.13;;
55931;SDS011;41837;55.700;37.984;2022-10-17T08:43:22;13.10;;;7.47;;
55931;SDS011;41837;55.700;37.984;2022-10-17T08:45:58;13.85;;;6.97;;
55931;SDS011;41837;55.700;37.984;2022-10-17T08:48:28;16.15;;;7.82;;
55931;SDS011;41837;55.700;37.984;2022-10-17T08:50:55;15.95;;;7.35;;
55931;SDS011;41837;55.700;37.984;2022-10-17T08:53:37;15.52;;;7.70;;
55931;SDS011;41837;55.700;37.984;2022-10-17T08:56:27;16.10;;;7.47;;
55931;SDS011;41837;55.700;37.984;2022-10-17T08:58:51;21.77;;;10.25;;
55931;SDS011;41837;55.700;37.984;2022-10-17T09:01:28;19.40;;;9.15;;
55931;SDS011;41837;55.700;37.984;2022-10-17T09:06:24;25.15;;;10.80;;
55931;SDS011;41837;55.700;37.984;2022-10-17T09:14:12;23.38;;;9.43;;
55931;SDS011;41837;55.700;37.984;2022-10-17T09:19:31;17.88;;;8.18;;
55931;SDS011;41837;55.700;37.984;2022-10-17T09:22:05;17.85;;;6.93;;
55931;SDS011;41837;55.700;37.984;2022-10-17T09:25:08;12.82;;;7.00;;
55931;SDS011;41837;55.700;37.984;2022-10-17T09:27:37;14.82;;;6.93;;
55931;SDS011;41837;55.700;37.984;2022-10-17T09:32:31;12.85;;;6.93;;
55931;SDS011;41837;55.700;37.984;2022-10-17T09:34:57;13.82;;;6.93;;
55931;SDS011;41837;55.700;37.984;2022-10-17T09:37:24;19.90;;;8.45;;
55931;SDS011;41837;55.700;37.984;2022-10-17T09:39:53;22.80;;;8.05;;
55931;SDS011;41837;55.700;37.984;2022-10-17T09:42:19;13.32;;;7.93;;
55931;SDS011;41837;55.700;37.984;2022-10-17T09:44:50;20.23;;;9.07;;
55931;SDS011;41837;55.700;37.984;2022-10-17T09:49:49;19.92;;;8.45;;
55931;SDS011;41837;55.700;37.984;2022-10-17T09:52:20;16.55;;;6.97;;
55931;SDS011;41837;55.700;37.984;2022-10-17T09:54:48;14.57;;;8.02;;
55931;SDS011;41837;55.700;37.984;2022-10-17T09:57:15;16.13;;;8.85;;
55931;SDS011;41837;55.700;37.984;2022-10-17T09:59:46;15.90;;;9.23;;
55931;SDS011;41837;55.700;37.984;2022-10-17T10:04:58;15.80;;;8.98;;
55931;SDS011;41837;55.700;37.984;2022-10-17T10:07:24;19.83;;;9.50;;
55931;SDS011;41837;55.700;37.984;2022-10-17T10:09:51;17.17;;;9.85;;
55931;SDS011;41837;55.700;37.984;2022-10-17T10:12:21;20.05;;;9.55;;
55931;SDS011;41837;55.700;37.984;2022-10-17T10:14:48;24.02;;;10.40;;
55931;SDS011;41837;55.700;37.984;2022-10-17T10:17:24;25.50;;;10.48;;
55931;SDS011;41837;55.700;37.984;2022-10-17T10:19:50;18.58;;;10.68;;
55931;SDS011;41837;55.700;37.984;2022-10-17T10:22:17;21.48;;;12.52;;
55931;SDS011;41837;55.700;37.984;2022-10-17T10:24:43;20.40;;;10.10;;
55931;SDS011;41837;55.700;37.984;2022-10-17T10:27:11;16.95;;;9.88;;
55931;SDS011;41837;55.700;37.984;2022-10-17T10:29:39;17.48;;;10.20;;
55931;SDS011;41837;55.700;37.984;2022-10-17T10:32:09;16.98;;;10.38;;
55931;SDS011;41837;55.700;37.984;2022-10-17T10:34:37;21.08;;;10.48;;
55931;SDS011;41837;55.700;37.984;2022-10-17T10:37:25;18.48;;;9.85;;
55931;SDS011;41837;55.700;37.984;2022-10-17T10:39:51;26.13;;;9.63;;
55931;SDS011;41837;55.700;37.984;2022-10-17T10:44:50;17.70;;;9.32;;
55931;SDS011;41837;55.700;37.984;2022-10-17T10:47:21;14.40;;;9.43;;
55931;SDS011;41837;55.700;37.984;2022-10-17T10:49:49;17.38;;;9.35;;
55931;SDS011;41837;55.700;37.984;2022-10-17T10:52:31;16.63;;;9.35;;
55931;SDS011;41837;55.700;37.984;2022-10-17T10:55:01;15.80;;;9.15;;
55931;SDS011;41837;55.700;37.984;2022-10-17T10:57:29;19.88;;;8.93;;
55931;SDS011;41837;55.700;37.984;2022-10-17T11:05:21;25.38;;;10.38;;
55931;SDS011;41837;55.700;37.984;2022-10-17T11:07:50;20.27;;;10.38;;
55931;SDS011;41837;55.700;37.984;2022-10-17T11:10:36;19.25;;;11.05;;
55931;SDS011;41837;55.700;37.984;2022-10-17T11:13:05;18.60;;;9.93;;
55931;SDS011;41837;55.700;37.984;2022-10-17T11:20:50;17.10;;;10.05;;
55931;SDS011;41837;55.700;37.984;2022-10-17T11:25:56;16.67;;;9.68;;
55931;SDS011;41837;55.700;37.984;2022-10-17T11:28:23;17.58;;;9.38;;
55931;SDS011;41837;55.700;37.984;2022-10-17T11:31:24;16.38;;;9.27;;
55931;SDS011;41837;55.700;37.984;2022-10-17T11:36:11;14.10;;;9.05;;
55931;SDS011;41837;55.700;37.984;2022-10-17T11:38:40;23.20;;;9.57;;
55931;SDS011;41837;55.700;37.984;2022-10-17T11:41:12;20.38;;;9.70;;
55931;SDS011;41837;55.700;37.984;2022-10-17T11:43:44;17.17;;;9.57;;
55931;SDS011;41837;55.700;37.984;2022-10-17T11:46:16;19.52;;;9.70;;
55931;SDS011;41837;55.700;37.984;2022-10-17T11:48:49;17.05;;;9.35;;
55931;SDS011;41837;55.700;37.984;2022-10-17T11:51:16;20.50;;;10.00;;
55931;SDS011;41837;55.700;37.984;2022-10-17T11:56:08;20.23;;;10.82;;
55931;SDS011;41837;55.700;37.984;2022-10-17T11:58:36;19.33;;;10.77;;
55931;SDS011;41837;55.700;37.984;2022-10-17T12:01:18;19.23;;;10.55;;
55931;SDS011;41837;55.700;37.984;2022-10-17T12:06:33;18.15;;;10.75;;
55931;SDS011;41837;55.700;37.984;2022-10-17T12:11:54;23.23;;;13.20;;
55931;SDS011;41837;55.700;37.984;2022-10-17T12:19:51;25.73;;;13.10;;
55931;SDS011;41837;55.700;37.984;2022-10-17T12:22:18;24.38;;;13.38;;
55931;SDS011;41837;55.700;37.984;2022-10-17T12:30:18;22.42;;;13.30;;
55931;SDS011;41837;55.700;37.984;2022-10-17T12:35:21;22.00;;;13.18;;
55931;SDS011;41837;55.700;37.984;2022-10-17T12:45:44;23.00;;;13.77;;
55931;SDS011;41837;55.700;37.984;2022-10-17T12:51:17;27.25;;;15.20;;
55931;SDS011;41837;55.700;37.984;2022-10-17T12:56:14;26.65;;;13.50;;
55931;SDS011;41837;55.700;37.984;2022-10-17T12:58:44;28.23;;;14.50;;
55931;SDS011;41837;55.700;37.984;2022-10-17T13:01:14;25.25;;;14.80;;
55931;SDS011;41837;55.700;37.984;2022-10-17T13:03:45;24.63;;;14.40;;
55931;SDS011;41837;55.700;37.984;2022-10-17T13:06:16;26.45;;;14.43;;
55931;SDS011;41837;55.700;37.984;2022-10-17T13:08:46;25.58;;;15.02;;
55931;SDS011;41837;55.700;37.984;2022-10-17T13:11:13;28.08;;;15.85;;
55931;SDS011;41837;55.700;37.984;2022-10-17T13:16:05;26.65;;;15.30;;
55931;SDS011;41837;55.700;37.984;2022-10-17T13:18:34;31.08;;;15.13;;
55931;SDS011;41837;55.700;37.984;2022-10-17T13:21:12;31.48;;;16.17;;
55931;SDS011;41837;55.700;37.984;2022-10-17T13:23:40;29.98;;;15.90;;
55931;SDS011;41837;55.700;37.984;2022-10-17T13:26:13;27.17;;;14.50;;
55931;SDS011;41837;55.700;37.984;2022-10-17T13:28:41;27.15;;;15.10;;
55931;SDS011;41837;55.700;37.984;2022-10-17T13:31:30;36.05;;;17.20;;
55931;SDS011;41837;55.700;37.984;2022-10-17T13:33:57;29.38;;;15.05;;
55931;SDS011;41837;55.700;37.984;2022-10-17T13:36:23;29.73;;;15.98;;
55931;SDS011;41837;55.700;37.984;2022-10-17T13:38:51;29.17;;;15.48;;
55931;SDS011;41837;55.700;37.984;2022-10-17T13:41:17;30.58;;;15.25;;
55931;SDS011;41837;55.700;37.984;2022-10-17T13:43:48;25.77;;;15.25;;
55931;SDS011;41837;55.700;37.984;2022-10-17T13:46:25;22.45;;;14.02;;
55931;SDS011;41837;55.700;37.984;2022-10-17T13:48:51;27.40;;;15.30;;
55931;SDS011;41837;55.700;37.984;2022-10-17T13:51:17;31.92;;;16.08;;
55931;SDS011;41837;55.700;37.984;2022-10-17T13:53:50;32.95;;;16.52;;
55931;SDS011;41837;55.700;37.984;2022-10-17T13:56:24;30.75;;;15.93;;
55931;SDS011;41837;55.700;37.984;2022-10-17T13:58:59;35.90;;;18.50;;
55931;SDS011;41837;55.700;37.984;2022-10-17T14:01:27;36.10;;;21.10;;
55931;SDS011;41837;55.700;37.984;2022-10-17T14:03:54;29.67;;;15.75;;
55931;SDS011;41837;55.700;37.984;2022-10-17T14:06:24;29.75;;;14.85;;
55931;SDS011;41837;55.700;37.984;2022-10-17T14:08:53;28.35;;;15.00;;
55931;SDS011;41837;55.700;37.984;2022-10-17T14:11:25;24.63;;;15.60;;
55931;SDS011;41837;55.700;37.984;2022-10-17T14:13:53;27.25;;;15.38;;
55931;SDS011;41837;55.700;37.984;2022-10-17T14:16:20;29.35;;;16.02;;
55931;SDS011;41837;55.700;37.984;2022-10-17T14:18:47;28.65;;;15.38;;
55931;SDS011;41837;55.700;37.984;2022-10-17T14:21:20;34.53;;;17.80;;
55931;SDS011;41837;55.700;37.984;2022-10-17T14:23:47;27.27;;;14.77;;
55931;SDS011;41837;55.700;37.984;2022-10-17T14:28:45;27.92;;;14.07;;
55931;SDS011;41837;55.700;37.984;2022-10-17T14:31:16;27.95;;;14.32;;
55931;SDS011;41837;55.700;37.984;2022-10-17T14:33:44;24.75;;;13.70;;
55931;SDS011;41837;55.700;37.984;2022-10-17T14:36:11;25.98;;;14.38;;
55931;SDS011;41837;55.700;37.984;2022-10-17T14:38:43;29.50;;;15.52;;
55931;SDS011;41837;55.700;37.984;2022-10-17T14:41:29;32.58;;;15.68;;
55931;SDS011;41837;55.700;37.984;2022-10-17T14:43:57;28.05;;;14.85;;
55931;SDS011;41837;55.700;37.984;2022-10-17T14:46:25;28.63;;;14.40;;
55931;SDS011;41837;55.700;37.984;2022-10-17T14:48:56;29.50;;;13.02;;
55931;SDS011;41837;55.700;37.984;2022-10-17T14:51:29;25.75;;;13.60;;
55931;SDS011;41837;55.700;37.984;2022-10-17T14:54:16;28.70;;;14.52;;
55931;SDS011;41837;55.700;37.984;2022-10-17T14:56:46;27.00;;;13.88;;
55931;SDS011;41837;55.700;37.984;2022-10-17T14:59:15;25.73;;;14.18;;
55931;SDS011;41837;55.700;37.984;2022-10-17T15:01:49;29.02;;;15.70;;
55931;SDS011;41837;55.700;37.984;2022-10-17T15:04:15;26.13;;;13.18;;
55931;SDS011;41837;55.700;37.984;2022-10-17T15:06:42;27.55;;;13.65;;
55931;SDS011;41837;55.700;37.984;2022-10-17T15:09:09;25.92;;;14.40;;
55931;SDS011;41837;55.700;37.984;2022-10-17T15:11:36;25.25;;;14.30;;
55931;SDS011;41837;55.700;37.984;2022-10-17T15:14:02;30.25;;;14.25;;
55931;SDS011;41837;55.700;37.984;2022-10-17T15:16:32;28.88;;;14.52;;
55931;SDS011;41837;55.700;37.984;2022-10-17T15:18:58;30.17;;;16.30;;
55931;SDS011;41837;55.700;37.984;2022-10-17T15:21:26;29.48;;;16.48;;
55931;SDS011;41837;55.700;37.984;2022-10-17T15:23:53;43.83;;;24.13;;
55931;SDS011;41837;55.700;37.984;2022-10-17T15:26:21;38.70;;;16.73;;
55931;SDS011;41837;55.700;37.984;2022-10-17T15:28:47;34.08;;;16.02;;
55931;SDS011;41837;55.700;37.984;2022-10-17T15:31:15;27.35;;;15.73;;
55931;SDS011;41837;55.700;37.984;2022-10-17T15:33:41;37.08;;;16.75;;
55931;SDS011;41837;55.700;37.984;2022-10-17T15:39:06;36.05;;;14.38;;
55931;SDS011;41837;55.700;37.984;2022-10-17T15:41:35;32.40;;;16.25;;
55931;SDS011;41837;55.700;37.984;2022-10-17T15:44:01;31.42;;;14.98;;
55931;SDS011;41837;55.700;37.984;2022-10-17T15:46:28;31.55;;;15.55;;
55931;SDS011;41837;55.700;37.984;2022-10-17T15:48:55;30.95;;;14.27;;
55931;SDS011;41837;55.700;37.984;2022-10-17T15:51:22;30.33;;;14.93;;
55931;SDS011;41837;55.700;37.984;2022-10-17T15:53:48;31.58;;;15.52;;
55931;SDS011;41837;55.700;37.984;2022-10-17T15:59:03;25.10;;;14.57;;
55931;SDS011;41837;55.700;37.984;2022-10-17T16:01:31;26.58;;;14.30;;
55931;SDS011;41837;55.700;37.984;2022-10-17T16:03:57;22.48;;;14.55;;
55931;SDS011;41837;55.700;37.984;2022-10-17T16:06:26;28.83;;;13.85;;
55931;SDS011;41837;55.700;37.984;2022-10-17T16:08:53;32.25;;;15.30;;
55931;SDS011;41837;55.700;37.984;2022-10-17T16:11:34;29.38;;;15.82;;
55931;SDS011;41837;55.700;37.984;2022-10-17T16:14:03;25.67;;;14.93;;
55931;SDS011;41837;55.700;37.984;2022-10-17T16:16:29;23.05;;;14.32;;
55931;SDS011;41837;55.700;37.984;2022-10-17T16:18:56;28.50;;;15.57;;
55931;SDS011;41837;55.700;37.984;2022-10-17T16:21:24;26.83;;;15.25;;
55931;SDS011;41837;55.700;37.984;2022-10-17T16:23:51;30.25;;;15.15;;
55931;SDS011;41837;55.700;37.984;2022-10-17T16:26:17;30.30;;;16.27;;